createdAt,value
2023-05-25T00:01:56.149Z,102497.31
2023-05-25T00:04:27.322Z,102495.53
2023-05-25T00:06:55.799Z,102496.44
2023-05-25T00:09:25.514Z,102493.75
2023-05-25T00:11:54.059Z,102491.97
2023-05-25T00:14:22.511Z,102500.88
2023-05-25T00:16:51.608Z,102495.56
2023-05-25T00:19:20.051Z,102498.19
2023-05-25T00:21:50.102Z,102504.44
2023-05-25T00:24:18.698Z,102494.63
2023-05-25T00:26:47.495Z,102499.97
2023-05-25T00:29:15.851Z,102487.50
2023-05-25T00:31:44.150Z,102495.56
2023-05-25T00:34:12.499Z,102499.09
2023-05-25T00:36:43.207Z,102499.09
2023-05-25T00:39:13.303Z,102498.19
2023-05-25T00:41:42.616Z,102505.34
2023-05-25T00:44:11.126Z,102497.31
2023-05-25T00:46:39.836Z,102465.28
2023-05-25T00:49:08.292Z,102502.66
2023-05-25T00:51:37.751Z,102499.97
2023-05-25T00:57:53.125Z,102490.22
2023-05-25T01:00:21.982Z,102497.34
2023-05-25T01:02:56.480Z,102505.34
2023-05-25T01:05:29.052Z,102484.91
2023-05-25T01:08:01.755Z,102516.03
2023-05-25T01:10:34.252Z,102516.03
2023-05-25T01:13:04.536Z,102513.38
2023-05-25T01:15:34.519Z,102518.72
2023-05-25T01:18:03.677Z,102519.59
2023-05-25T01:20:32.098Z,102523.16
2023-05-25T01:24:17.655Z,102524.03
2023-05-25T01:26:55.508Z,102517.81
2023-05-25T01:29:27.443Z,102517.81
2023-05-25T01:31:57.806Z,102518.69
2023-05-25T01:34:27.353Z,102525.78
2023-05-25T01:36:56.679Z,102515.13
2023-05-25T01:39:25.264Z,102524.03
2023-05-25T01:41:55.054Z,102527.59
2023-05-25T01:44:23.589Z,102407.56
2023-05-25T01:47:00.153Z,102529.38
2023-05-25T01:49:35.852Z,102528.50
2023-05-25T01:52:14.701Z,102537.38
2023-05-25T01:54:53.545Z,102534.72
2023-05-25T01:57:24.424Z,102535.63
2023-05-25T01:59:57.623Z,102538.31
2023-05-25T02:02:27.420Z,102533.81
2023-05-25T02:04:56.276Z,102539.19
2023-05-25T02:07:25.031Z,102534.72
2023-05-25T02:09:53.348Z,102531.16
2023-05-25T02:12:23.094Z,102532.94
2023-05-25T02:14:51.445Z,102526.72
2023-05-25T02:17:19.900Z,102534.72
2023-05-25T02:19:52.915Z,102541.84
2023-05-25T02:22:21.939Z,102533.84
2023-05-25T02:24:50.727Z,102541.88
2023-05-25T02:27:18.983Z,102542.75
2023-05-25T02:29:48.736Z,102541.88
2023-05-25T02:32:17.296Z,102548.09
2023-05-25T02:34:46.934Z,102545.44
2023-05-25T02:37:15.334Z,102540.97
2023-05-25T02:39:44.387Z,102549.88
2023-05-25T02:42:15.411Z,102550.75
2023-05-25T02:44:48.260Z,102539.19
2023-05-25T02:47:19.149Z,102551.63
2023-05-25T02:49:48.036Z,102554.31
2023-05-25T02:52:16.597Z,102555.19
2023-05-25T02:54:44.973Z,102552.50
2023-05-25T02:57:19.931Z,102553.41
2023-05-25T02:59:48.670Z,102557.84
2023-05-25T03:02:21.028Z,102552.53
2023-05-25T03:04:53.906Z,102547.19
2023-05-25T03:07:23.161Z,102549.84
2023-05-25T03:09:51.856Z,102563.19
2023-05-25T03:12:20.207Z,102565.84
2023-05-25T03:14:48.552Z,102569.38
2023-05-25T03:17:19.021Z,102539.97
2023-05-25T03:19:47.320Z,102575.63
2023-05-25T03:22:15.692Z,102572.94
2023-05-25T03:24:43.993Z,102563.16
2023-05-25T03:27:12.421Z,102574.75
2023-05-25T03:29:40.836Z,102564.06
2023-05-25T03:32:10.595Z,102564.06
2023-05-25T03:34:41.479Z,102568.47
2023-05-25T03:37:10.987Z,102568.47
2023-05-25T03:39:39.393Z,102562.25
2023-05-25T03:42:11.089Z,102572.91
2023-05-25T03:44:41.092Z,102577.34
2023-05-25T03:47:09.776Z,102580.91
2023-05-25T03:49:38.102Z,102580.00
2023-05-25T03:52:08.379Z,102575.56
2023-05-25T03:54:37.018Z,102576.38
2023-05-25T03:57:06.263Z,102579.09
2023-05-25T03:59:34.536Z,102585.31
2023-05-25T04:02:02.895Z,102582.63
2023-05-25T04:04:31.176Z,102581.78
2023-05-25T04:07:00.144Z,102579.16
2023-05-25T04:09:29.867Z,102587.16
2023-05-25T04:11:58.315Z,102584.41
2023-05-25T04:14:26.795Z,102593.28
2023-05-25T04:16:55.139Z,102591.50
2023-05-25T04:19:23.624Z,102597.75
2023-05-25T04:21:51.929Z,102596.03
2023-05-25T04:24:20.569Z,102583.56
2023-05-25T04:26:50.797Z,102584.50
2023-05-25T04:29:19.276Z,102588.91
2023-05-25T04:32:09.536Z,102595.13
2023-05-25T04:34:52.262Z,102601.38
2023-05-25T04:37:27.526Z,102610.28
2023-05-25T04:39:58.539Z,102608.47
2023-05-25T04:42:31.890Z,102612.09
2023-05-25T04:45:01.548Z,102613.00
2023-05-25T04:47:31.013Z,102617.44
2023-05-25T04:49:59.561Z,102622.78
2023-05-25T04:52:27.953Z,102615.69
2023-05-25T04:54:56.297Z,102622.81
2023-05-25T04:57:24.622Z,102625.50
2023-05-25T04:59:54.396Z,102624.63
2023-05-25T05:02:22.933Z,102627.31
2023-05-25T05:04:53.812Z,102625.50
2023-05-25T05:07:22.904Z,102630.00
2023-05-25T05:09:51.437Z,102630.00
2023-05-25T05:12:21.775Z,102629.09
2023-05-25T05:14:55.987Z,102641.56
2023-05-25T05:17:26.345Z,102637.13
2023-05-25T05:19:54.910Z,102638.03
2023-05-25T05:22:24.880Z,102640.69
2023-05-25T05:24:53.261Z,102637.13
2023-05-25T05:27:27.124Z,102613.97
2023-05-25T05:30:01.957Z,102642.44
2023-05-25T05:32:30.731Z,102637.97
2023-05-25T05:34:59.229Z,102653.94
2023-05-25T05:37:39.211Z,102653.94
2023-05-25T05:40:10.755Z,102657.47
2023-05-25T05:42:40.787Z,102652.09
2023-05-25T05:45:12.336Z,102656.53
2023-05-25T05:47:40.564Z,102654.75
2023-05-25T05:50:10.074Z,102656.53
2023-05-25T05:52:40.023Z,102652.09
2023-05-25T05:55:09.308Z,102660.00
2023-05-25T05:57:39.980Z,102668.97
2023-05-25T06:00:11.948Z,102672.59
2023-05-25T06:02:47.371Z,102676.16
2023-05-25T06:05:21.805Z,102669.00
2023-05-25T06:07:50.311Z,102683.31
2023-05-25T06:10:20.578Z,102683.28
2023-05-25T06:12:49.770Z,102680.53
2023-05-25T06:15:19.672Z,102690.25
2023-05-25T06:17:49.636Z,102694.78
2023-05-25T06:20:19.000Z,102682.31
2023-05-25T06:22:48.199Z,102680.59
2023-05-25T06:25:17.554Z,102661.88
2023-05-25T06:27:46.386Z,102683.31
2023-05-25T06:30:15.668Z,102691.28
2023-05-25T06:32:46.089Z,102694.94
2023-05-25T06:35:19.614Z,102696.72
2023-05-25T06:37:50.798Z,102688.66
2023-05-25T06:40:20.697Z,102691.28
2023-05-25T06:42:49.266Z,102694.81
2023-05-25T06:45:42.741Z,102698.28
2023-05-25T06:48:12.697Z,102701.84
2023-05-25T06:50:42.354Z,102693.72
2023-05-25T06:53:11.440Z,102711.56
2023-05-25T06:55:41.511Z,102707.97
2023-05-25T06:58:10.068Z,102715.09
2023-05-25T07:00:38.431Z,102719.56
2023-05-25T07:03:06.824Z,102717.84
2023-05-25T07:05:36.537Z,102723.19
2023-05-25T07:08:04.945Z,102724.97
2023-05-25T07:10:33.255Z,102706.31
2023-05-25T07:13:01.589Z,102733.91
2023-05-25T07:15:29.845Z,102723.25
2023-05-25T07:17:58.847Z,102731.22
2023-05-25T07:20:27.521Z,102739.28
2023-05-25T07:22:57.287Z,102737.47
2023-05-25T07:25:25.564Z,102737.41
2023-05-25T07:27:55.174Z,102739.06
2023-05-25T07:30:23.799Z,102744.38
2023-05-25T07:32:52.216Z,102742.13
2023-05-25T07:35:20.764Z,102741.25
2023-05-25T07:37:59.553Z,102735.06
2023-05-25T07:40:28.608Z,102730.66
2023-05-25T07:42:57.109Z,102743.97
2023-05-25T07:45:25.457Z,102736.00
2023-05-25T07:47:53.863Z,102745.81
2023-05-25T07:52:51.979Z,102743.06
2023-05-25T07:55:21.756Z,102746.69
2023-05-25T07:57:50.075Z,102757.34
2023-05-25T08:00:20.470Z,102776.09
2023-05-25T08:02:48.870Z,102763.53
2023-05-25T08:05:17.487Z,102767.94
2023-05-25T08:07:46.857Z,102780.34
2023-05-25T08:10:15.342Z,102774.03
2023-05-25T08:12:49.579Z,102772.16
2023-05-25T08:15:18.864Z,102773.25
2023-05-25T08:17:49.387Z,102770.41
2023-05-25T08:20:18.194Z,102773.03
2023-05-25T08:22:46.492Z,102780.16
2023-05-25T08:25:14.835Z,102780.97
2023-05-25T08:27:44.544Z,102780.94
2023-05-25T08:30:13.647Z,102784.44
2023-05-25T08:32:42.083Z,102795.03
2023-05-25T08:35:11.124Z,102794.97
2023-05-25T08:37:40.084Z,102799.44
2023-05-25T08:40:15.507Z,102786.91
2023-05-25T08:42:45.934Z,102791.41
2023-05-25T08:45:22.513Z,102795.88
2023-05-25T08:48:02.698Z,102792.25
2023-05-25T08:50:33.662Z,102794.97
2023-05-25T08:53:04.633Z,102795.94
2023-05-25T08:55:36.690Z,102800.44
2023-05-25T08:58:16.253Z,102796.03
2023-05-25T09:00:53.268Z,102799.63
2023-05-25T09:03:22.168Z,102803.22
2023-05-25T09:05:51.423Z,102803.25
2023-05-25T09:08:21.654Z,102797.03
2023-05-25T09:10:51.459Z,102804.19
2023-05-25T09:13:22.827Z,102805.06
2023-05-25T09:15:52.985Z,102803.22
2023-05-25T09:18:21.488Z,102805.06
2023-05-25T09:20:50.281Z,102805.16
2023-05-25T09:23:18.961Z,102802.47
2023-05-25T09:25:50.692Z,102803.34
2023-05-25T09:30:53.580Z,102811.38
2023-05-25T09:33:22.183Z,102808.63
2023-05-25T09:35:51.522Z,102813.94
2023-05-25T09:38:20.483Z,102806.84
2023-05-25T09:40:49.151Z,102804.13
2023-05-25T09:43:32.286Z,102805.88
2023-05-25T09:46:07.953Z,102805.88
2023-05-25T09:48:36.939Z,102812.09
2023-05-25T09:51:06.513Z,102813.88
2023-05-25T09:53:34.859Z,102808.47
2023-05-25T09:56:04.403Z,102814.72
2023-05-25T09:58:32.849Z,102812.03
2023-05-25T10:01:01.438Z,102807.47
2023-05-25T10:03:31.518Z,102813.75
2023-05-25T10:06:00.040Z,102810.94
2023-05-25T10:08:30.063Z,102808.38
2023-05-25T10:10:58.461Z,102808.13
2023-05-25T10:13:28.496Z,102813.38
2023-05-25T10:15:58.232Z,102803.34
2023-05-25T10:18:35.778Z,102810.31
2023-05-25T10:21:06.880Z,102780.94
2023-05-25T10:23:41.917Z,102812.91
2023-05-25T10:26:11.201Z,102816.47
2023-05-25T10:28:42.087Z,102781.94
2023-05-25T10:31:11.803Z,102801.72
2023-05-25T10:33:43.327Z,102801.75
2023-05-25T10:36:14.455Z,102697.63
2023-05-25T10:38:44.797Z,102811.53
2023-05-25T10:41:13.410Z,102817.75
2023-05-25T10:43:42.197Z,102814.03
2023-05-25T10:46:12.137Z,102817.50
2023-05-25T10:48:47.704Z,102820.16
2023-05-25T10:51:16.170Z,102806.69
2023-05-25T10:53:50.986Z,102825.31
2023-05-25T10:56:19.371Z,102814.53
2023-05-25T10:58:48.006Z,102820.69
2023-05-25T11:01:17.173Z,102828.66
2023-05-25T11:04:17.131Z,102824.25
2023-05-25T11:07:13.542Z,102832.34
2023-05-25T11:09:57.698Z,102826.16
2023-05-25T11:12:26.157Z,102826.22
2023-05-25T11:15:16.261Z,102829.88
2023-05-25T11:18:03.664Z,102828.09
2023-05-25T11:20:33.964Z,102828.13
2023-05-25T11:23:25.374Z,102827.25
2023-05-25T11:25:53.694Z,102820.03
2023-05-25T11:28:24.299Z,102807.69
2023-05-25T11:30:52.532Z,102816.47
2023-05-25T11:33:23.845Z,102809.25
2023-05-25T11:35:57.589Z,102811.06
2023-05-25T11:38:27.449Z,102810.13
2023-05-25T11:40:55.876Z,102798.53
2023-05-25T11:43:25.765Z,102807.56
2023-05-25T11:45:57.821Z,102805.00
2023-05-25T11:48:26.408Z,102787.22
2023-05-25T11:51:07.877Z,102800.59
2023-05-25T11:53:36.576Z,102797.13
2023-05-25T11:56:08.393Z,102798.06
2023-05-25T11:58:37.513Z,102797.06
2023-05-25T12:01:17.078Z,102662.03
2023-05-25T12:03:46.696Z,102805.22
2023-05-25T12:06:31.554Z,102801.69
2023-05-25T12:09:01.281Z,102790.91
2023-05-25T12:11:31.473Z,102790.91
2023-05-25T12:14:00.771Z,102806.09
2023-05-25T12:16:29.566Z,102803.50
2023-05-25T12:18:58.807Z,102798.03
2023-05-25T12:21:28.798Z,102802.63
2023-05-25T12:23:57.362Z,102787.31
2023-05-25T12:26:26.385Z,102790.88
2023-05-25T12:29:01.749Z,102799.00
2023-05-25T12:31:31.953Z,102713.47
2023-05-25T12:34:12.046Z,102798.03
2023-05-25T12:36:44.626Z,102782.03
2023-05-25T12:39:15.485Z,102789.06
2023-05-25T12:41:46.325Z,102768.75
2023-05-25T12:44:25.204Z,102763.31
2023-05-25T12:46:55.588Z,102790.88
2023-05-25T12:49:32.954Z,102791.59
2023-05-25T12:52:05.398Z,102790.53
2023-05-25T12:54:45.216Z,102795.00
2023-05-25T12:57:16.229Z,102783.50
2023-05-25T12:59:46.741Z,102772.78
2023-05-25T13:02:15.934Z,102780.63
2023-05-25T13:04:44.632Z,102785.97
2023-05-25T13:07:14.392Z,102783.22
2023-05-25T13:09:42.815Z,102783.97
2023-05-25T13:12:11.248Z,102777.63
2023-05-25T13:14:39.583Z,102772.47
2023-05-25T13:17:07.897Z,102784.75
2023-05-25T13:19:36.242Z,102780.03
2023-05-25T13:22:04.524Z,102771.97
2023-05-25T13:24:34.254Z,102783.50
2023-05-25T13:27:02.557Z,102770.13
2023-05-25T13:29:30.867Z,102784.25
2023-05-25T13:31:59.248Z,102776.09
2023-05-25T13:34:27.758Z,102769.94
2023-05-25T13:36:56.542Z,102780.00
2023-05-25T13:39:24.867Z,102777.25
2023-05-25T13:41:54.471Z,102775.38
2023-05-25T13:44:22.793Z,102768.09
2023-05-25T13:46:51.147Z,102766.28
2023-05-25T13:49:19.807Z,102776.19
2023-05-25T13:51:48.208Z,102765.38
2023-05-25T13:54:16.624Z,102774.47
2023-05-25T13:56:44.961Z,102778.88
2023-05-25T13:59:14.595Z,102769.06
2023-05-25T14:01:42.982Z,102767.19
2023-05-25T14:04:12.517Z,102765.19
2023-05-25T14:06:40.953Z,102763.81
2023-05-25T14:09:09.950Z,102763.94
2023-05-25T14:11:39.602Z,102768.78
2023-05-25T14:14:13.783Z,102771.16
2023-05-25T14:16:46.385Z,102770.66
2023-05-25T14:19:16.801Z,102767.13
2023-05-25T14:21:45.318Z,102754.53
2023-05-25T14:24:13.882Z,102767.91
2023-05-25T14:26:43.677Z,102759.84
2023-05-25T14:29:13.020Z,102762.47
2023-05-25T14:31:41.456Z,102761.66
2023-05-25T14:34:11.283Z,102763.47
2023-05-25T14:36:39.572Z,102764.44
2023-05-25T14:39:08.753Z,102760.88
2023-05-25T14:41:38.404Z,102763.63
2023-05-25T14:44:06.884Z,102767.22
2023-05-25T14:46:35.490Z,102751.94
2023-05-25T14:49:03.962Z,102756.25
2023-05-25T14:51:33.933Z,102759.59
2023-05-25T14:54:03.591Z,102753.47
2023-05-25T14:56:31.983Z,102759.69
2023-05-25T14:59:00.305Z,102750.53
2023-05-25T15:01:29.774Z,102747.00
2023-05-25T15:03:58.403Z,102753.16
2023-05-25T15:06:26.773Z,102744.91
2023-05-25T15:08:56.470Z,102749.34
2023-05-25T15:11:24.869Z,102651.56
2023-05-25T15:13:53.193Z,102751.94
2023-05-25T15:16:21.717Z,102747.41
2023-05-25T15:18:50.939Z,102733.34
2023-05-25T15:21:19.324Z,102742.09
2023-05-25T15:23:47.754Z,102643.47
2023-05-25T15:26:17.443Z,102749.28
2023-05-25T15:28:45.779Z,102745.66
2023-05-25T15:31:14.118Z,102751.91
2023-05-25T15:33:50.014Z,102748.44
2023-05-25T15:36:20.279Z,102748.72
2023-05-25T15:38:49.650Z,102747.94
2023-05-25T15:41:19.452Z,102748.88
2023-05-25T15:43:54.509Z,102754.25
2023-05-25T15:46:23.130Z,102746.44
2023-05-25T15:48:51.505Z,102744.06
2023-05-25T15:51:19.873Z,102733.13
2023-05-25T15:53:48.351Z,102745.75
2023-05-25T15:56:18.211Z,102674.81
2023-05-25T15:58:48.963Z,102745.03
2023-05-25T16:01:17.451Z,102757.50
2023-05-25T16:03:45.920Z,102752.28
2023-05-25T16:06:14.262Z,102754.97
2023-05-25T16:08:42.572Z,102755.13
2023-05-25T16:11:10.960Z,102752.47
2023-05-25T16:13:40.770Z,102741.00
2023-05-25T16:16:09.770Z,102737.44
2023-05-25T16:18:38.192Z,102749.31
2023-05-25T16:21:07.043Z,102741.22
2023-05-25T16:23:35.446Z,102742.09
2023-05-25T16:26:03.724Z,102739.59
2023-05-25T16:28:32.054Z,102737.06
2023-05-25T16:31:01.755Z,102741.63
2023-05-25T16:33:30.131Z,102732.59
2023-05-25T16:35:58.448Z,102745.09
2023-05-25T16:38:26.969Z,102736.09
2023-05-25T16:40:55.318Z,102737.09
2023-05-25T16:43:25.201Z,102737.00
2023-05-25T16:45:54.144Z,102738.81
2023-05-25T16:48:24.133Z,102726.31
2023-05-25T16:50:52.580Z,102731.72
2023-05-25T16:53:20.929Z,102731.69
2023-05-25T16:55:49.315Z,102736.97
2023-05-25T16:58:17.855Z,102733.31
2023-05-25T17:00:46.215Z,102734.28
2023-05-25T17:03:14.889Z,102736.09
2023-05-25T17:05:45.048Z,102735.16
2023-05-25T17:08:13.582Z,102734.16
2023-05-25T17:10:42.668Z,102732.47
2023-05-25T17:13:11.008Z,102730.63
2023-05-25T17:15:39.397Z,102739.63
2023-05-25T17:18:08.228Z,102742.28
2023-05-25T17:20:36.695Z,102725.38
2023-05-25T17:23:06.673Z,102726.44
2023-05-25T17:25:35.122Z,102733.41
2023-05-25T17:28:03.429Z,102737.03
2023-05-25T17:30:32.005Z,102734.31
2023-05-25T17:33:01.690Z,102733.38
2023-05-25T17:35:30.292Z,102734.22
2023-05-25T17:37:58.667Z,102737.78
2023-05-25T17:40:28.339Z,102738.75
2023-05-25T17:42:56.894Z,102730.88
2023-05-25T17:45:25.528Z,102741.53
2023-05-25T17:47:54.222Z,102742.38
2023-05-25T17:50:22.570Z,102734.31
2023-05-25T17:52:51.022Z,102748.59
2023-05-25T17:55:20.535Z,102744.97
2023-05-25T17:57:50.246Z,102745.00
2023-05-25T18:00:22.886Z,102739.66
2023-05-25T18:02:51.979Z,102749.50
2023-05-25T18:05:20.679Z,102745.91
2023-05-25T18:07:49.199Z,102735.16
2023-05-25T18:10:17.622Z,102747.66
2023-05-25T18:12:49.211Z,102741.56
2023-05-25T18:15:19.022Z,102741.53
2023-05-25T18:17:47.641Z,102756.75
2023-05-25T18:20:16.167Z,102753.16
2023-05-25T18:22:44.519Z,102749.53
2023-05-25T18:25:12.860Z,102746.81
2023-05-25T18:27:41.215Z,102746.81
2023-05-25T18:30:11.142Z,102744.19
2023-05-25T18:32:40.958Z,102739.78
2023-05-25T18:35:10.220Z,102746.09
2023-05-25T18:37:38.507Z,102754.13
2023-05-25T18:40:08.723Z,102726.59
2023-05-25T18:42:37.053Z,102750.63
2023-05-25T18:45:06.538Z,102748.00
2023-05-25T18:47:34.895Z,102731.03
2023-05-25T18:50:04.835Z,102749.78
2023-05-25T18:52:33.121Z,102740.00
2023-05-25T18:55:01.488Z,102748.13
2023-05-25T18:57:29.762Z,102746.44
2023-05-25T18:59:58.120Z,102757.16
2023-05-25T19:02:26.704Z,102757.22
2023-05-25T19:04:55.028Z,102757.25
2023-05-25T19:07:24.725Z,102766.09
2023-05-25T19:09:53.139Z,102750.97
2023-05-25T19:12:21.541Z,102765.28
2023-05-25T19:14:49.886Z,102764.38
2023-05-25T19:17:18.338Z,102758.19
2023-05-25T19:19:46.703Z,102762.63
2023-05-25T19:22:15.040Z,102761.75
2023-05-25T19:24:48.603Z,102770.72
2023-05-25T19:27:19.910Z,102780.53
2023-05-25T19:29:48.417Z,102748.47
2023-05-25T19:32:17.394Z,102776.06
2023-05-25T19:34:46.382Z,102776.97
2023-05-25T19:37:14.755Z,102778.75
2023-05-25T19:39:44.596Z,102784.16
2023-05-25T19:42:12.963Z,102789.47
2023-05-25T19:44:41.641Z,102794.81
2023-05-25T19:47:10.041Z,102803.75
2023-05-25T19:49:38.428Z,102798.38
2023-05-25T19:52:07.510Z,102800.16
2023-05-25T19:54:35.914Z,102802.84
2023-05-25T19:57:06.797Z,102811.75
2023-05-25T19:59:36.871Z,102814.41
2023-05-25T20:02:05.898Z,102814.41
2023-05-25T20:04:34.358Z,102811.72
2023-05-25T20:07:02.799Z,102812.63
2023-05-25T20:09:31.226Z,102815.28
2023-05-25T20:12:00.812Z,102809.03
2023-05-25T20:14:31.218Z,102808.97
2023-05-25T20:16:59.688Z,102805.41
2023-05-25T20:19:28.072Z,102812.53
2023-05-25T20:21:57.856Z,102814.31
2023-05-25T20:24:26.211Z,102815.19
2023-05-25T20:26:56.856Z,102819.66
2023-05-25T20:29:25.733Z,102820.50
2023-05-25T20:31:55.550Z,102825.88
2023-05-25T20:34:23.927Z,102825.84
2023-05-25T20:36:52.267Z,102828.53
2023-05-25T20:39:20.944Z,102831.19
2023-05-25T20:41:49.243Z,102831.19
2023-05-25T20:44:17.624Z,102822.25
2023-05-25T20:46:46.027Z,102825.84
2023-05-25T20:49:15.771Z,102820.44
2023-05-25T20:51:49.742Z,102830.28
2023-05-25T20:54:18.341Z,102833.81
2023-05-25T20:56:48.055Z,102846.28
2023-05-25T20:59:16.445Z,102840.91
2023-05-25T21:01:45.275Z,102845.34
2023-05-25T21:04:15.115Z,102847.06
2023-05-25T21:06:43.453Z,102843.50
2023-05-25T21:09:12.129Z,102844.38
2023-05-25T21:11:40.584Z,102842.63
2023-05-25T21:14:09.129Z,102850.56
2023-05-25T21:16:37.688Z,102847.91
2023-05-25T21:19:06.075Z,102846.09
2023-05-25T21:21:36.132Z,102845.22
2023-05-25T21:24:05.380Z,102845.22
2023-05-25T21:26:33.782Z,102841.53
2023-05-25T21:29:02.339Z,102843.34
2023-05-25T21:31:30.736Z,102845.16
2023-05-25T21:34:00.094Z,102841.53
2023-05-25T21:36:28.790Z,102861.13
2023-05-25T21:38:58.510Z,102836.25
2023-05-25T21:41:27.278Z,102841.50
2023-05-25T21:43:55.632Z,102846.81
2023-05-25T21:46:23.942Z,102842.38
2023-05-25T21:48:52.295Z,102842.34
2023-05-25T21:51:20.598Z,102842.34
2023-05-25T21:53:48.941Z,102840.59
2023-05-25T21:56:18.754Z,102811.06
2023-05-25T21:58:47.499Z,102844.09
2023-05-25T22:01:15.895Z,102849.44
2023-05-25T22:03:44.272Z,102841.31
2023-05-25T22:06:12.665Z,102848.41
2023-05-25T22:08:41.148Z,102852.06
2023-05-25T22:11:09.487Z,102843.16
2023-05-25T22:13:39.249Z,102843.13
2023-05-25T22:16:07.997Z,102850.16
2023-05-25T22:18:38.449Z,102840.41
2023-05-25T22:21:06.907Z,102844.84
2023-05-25T22:23:35.238Z,102851.94
2023-05-25T22:26:04.979Z,102844.84
2023-05-25T22:28:33.413Z,102849.25
2023-05-25T22:31:03.165Z,102846.59
2023-05-25T22:33:31.522Z,102824.22
2023-05-25T22:35:59.937Z,102845.63
2023-05-25T22:38:30.050Z,102849.16
2023-05-25T22:40:58.328Z,102837.56
2023-05-25T22:43:27.042Z,102841.94
2023-05-25T22:45:56.951Z,102839.34
2023-05-25T22:48:27.709Z,102840.06
2023-05-25T22:50:55.874Z,102827.69
2023-05-25T22:53:24.197Z,102833.88
2023-05-25T22:55:52.634Z,102832.91
2023-05-25T22:58:21.053Z,102812.38
2023-05-25T23:00:49.395Z,102839.16
2023-05-25T23:03:17.850Z,102840.88
2023-05-25T23:05:47.922Z,102839.13
2023-05-25T23:08:16.333Z,102817.63
2023-05-25T23:10:44.749Z,102833.69
2023-05-25T23:13:14.978Z,102835.50
2023-05-25T23:15:44.872Z,102820.31
2023-05-25T23:18:13.428Z,102836.28
2023-05-25T23:20:41.925Z,102832.72
2023-05-25T23:23:11.734Z,102839.00
2023-05-25T23:25:40.111Z,102833.59
2023-05-25T23:28:08.509Z,102836.22
2023-05-25T23:30:37.859Z,102836.25
2023-05-25T23:33:08.450Z,102835.34
2023-05-25T23:35:36.897Z,102822.75
2023-05-25T23:38:05.507Z,102838.81
2023-05-25T23:40:35.183Z,102840.53
2023-05-25T23:43:03.572Z,102847.69
2023-05-25T23:45:31.936Z,102842.22
2023-05-25T23:48:00.608Z,102846.72
2023-05-25T23:50:28.915Z,102843.19
2023-05-25T23:52:57.341Z,102852.03
2023-05-25T23:55:25.699Z,102879.50
2023-05-25T23:57:55.406Z,102851.94
